createdAt,value
2023-05-04T00:01:12.924Z,47.26
2023-05-04T00:03:41.010Z,47.77
2023-05-04T00:06:09.206Z,48.50
2023-05-04T00:08:37.295Z,47.96
2023-05-04T00:11:05.565Z,48.16
2023-05-04T00:13:33.636Z,48.73
2023-05-04T00:16:01.640Z,48.89
2023-05-04T00:18:29.706Z,48.86
2023-05-04T00:20:57.746Z,49.23
2023-05-04T00:23:25.693Z,49.36
2023-05-04T00:25:53.683Z,49.31
2023-05-04T00:28:21.863Z,48.75
2023-05-04T00:30:50.034Z,48.49
2023-05-04T00:33:18.002Z,48.69
2023-05-04T00:35:46.075Z,48.55
2023-05-04T00:38:16.755Z,48.54
2023-05-04T00:40:45.572Z,49.30
2023-05-04T00:43:13.991Z,50.05
2023-05-04T00:45:42.668Z,51.16
2023-05-04T00:48:11.319Z,51.54
2023-05-04T00:50:40.776Z,51.62
2023-05-04T00:53:11.590Z,51.50
2023-05-04T00:55:41.162Z,51.50
2023-05-04T00:58:09.469Z,51.74
2023-05-04T01:00:37.780Z,52.36
2023-05-04T01:03:06.281Z,53.07
2023-05-04T01:05:39.416Z,53.28
2023-05-04T01:08:15.389Z,53.64
2023-05-04T01:11:00.868Z,53.26
2023-05-04T01:13:29.138Z,51.94
2023-05-04T01:15:57.738Z,52.29
2023-05-04T01:18:26.518Z,52.79
2023-05-04T01:20:54.893Z,53.00
2023-05-04T01:23:23.699Z,52.78
2023-05-04T01:26:09.979Z,53.48
2023-05-04T01:28:43.506Z,53.68
2023-05-04T01:31:14.987Z,53.59
2023-05-04T01:33:44.644Z,53.61
2023-05-04T01:36:13.424Z,53.53
2023-05-04T01:38:42.562Z,53.45
2023-05-04T01:41:10.659Z,53.89
2023-05-04T01:43:39.996Z,54.32
2023-05-04T01:46:08.145Z,54.56
2023-05-04T01:48:36.850Z,54.66
2023-05-04T01:51:05.364Z,54.73
2023-05-04T01:53:33.303Z,54.08
2023-05-04T01:56:01.485Z,54.40
2023-05-04T01:58:30.677Z,54.15
2023-05-04T02:00:59.673Z,54.03
2023-05-04T02:03:29.264Z,54.27
2023-05-04T02:05:57.554Z,54.59
2023-05-04T02:08:25.627Z,54.75
2023-05-04T02:10:53.696Z,54.60
2023-05-04T02:13:22.595Z,54.76
2023-05-04T02:15:50.897Z,54.62
2023-05-04T02:18:19.051Z,55.08
2023-05-04T02:20:46.994Z,54.70
2023-05-04T02:23:15.696Z,54.77
2023-05-04T02:25:43.880Z,54.74
2023-05-04T02:28:12.152Z,55.52
2023-05-04T02:30:41.868Z,55.93
2023-05-04T02:33:10.650Z,56.24
2023-05-04T02:35:38.881Z,56.17
2023-05-04T02:38:07.212Z,56.26
2023-05-04T02:40:35.258Z,56.42
2023-05-04T02:43:03.199Z,56.79
2023-05-04T02:45:31.222Z,56.59
2023-05-04T02:47:59.478Z,57.01
2023-05-04T02:50:27.566Z,57.18
2023-05-04T02:52:55.634Z,57.62
2023-05-04T02:55:23.596Z,58.06
2023-05-04T02:57:51.681Z,57.68
2023-05-04T03:00:20.478Z,57.45
2023-05-04T03:02:48.570Z,57.71
2023-05-04T03:05:16.921Z,57.63
2023-05-04T03:07:45.089Z,56.86
2023-05-04T03:10:13.110Z,56.97
2023-05-04T03:12:41.568Z,56.41
2023-05-04T03:15:09.942Z,55.86
2023-05-04T03:17:38.524Z,55.86
2023-05-04T03:20:08.169Z,56.01
2023-05-04T03:22:36.464Z,56.73
2023-05-04T03:25:05.345Z,56.46
2023-05-04T03:27:33.347Z,56.80
2023-05-04T03:30:01.326Z,57.29
2023-05-04T03:32:30.047Z,57.67
2023-05-04T03:34:58.694Z,57.98
2023-05-04T03:37:26.861Z,58.78
2023-05-04T03:39:54.945Z,59.00
2023-05-04T03:42:23.029Z,58.97
2023-05-04T03:44:51.193Z,59.52
2023-05-04T03:47:19.455Z,59.86
2023-05-04T03:49:48.246Z,59.74
2023-05-04T03:52:16.430Z,59.97
2023-05-04T03:54:44.590Z,60.18
2023-05-04T03:57:12.768Z,60.13
2023-05-04T03:59:41.260Z,60.58
2023-05-04T04:02:09.494Z,60.56
2023-05-04T04:04:37.943Z,60.40
2023-05-04T04:07:06.388Z,60.21
2023-05-04T04:09:34.452Z,60.21
2023-05-04T04:12:02.535Z,59.96
2023-05-04T04:14:31.230Z,59.84
2023-05-04T04:16:59.134Z,59.28
2023-05-04T04:19:27.259Z,59.61
2023-05-04T04:21:55.643Z,59.73
2023-05-04T04:24:23.607Z,60.06
2023-05-04T04:26:52.091Z,60.27
2023-05-04T04:29:20.161Z,59.75
2023-05-04T04:31:48.178Z,58.48
2023-05-04T04:34:16.414Z,59.56
2023-05-04T04:36:45.203Z,60.03
2023-05-04T04:39:13.505Z,59.39
2023-05-04T04:41:41.761Z,60.10
2023-05-04T04:44:09.739Z,60.07
2023-05-04T04:46:37.961Z,60.20
2023-05-04T04:49:06.213Z,60.10
2023-05-04T04:51:34.323Z,60.03
2023-05-04T04:54:02.462Z,60.73
2023-05-04T04:56:30.591Z,61.44
2023-05-04T04:58:58.741Z,61.16
2023-05-04T05:01:27.490Z,61.43
2023-05-04T05:03:55.383Z,61.88
2023-05-04T05:06:24.214Z,62.37
2023-05-04T05:08:52.971Z,62.67
2023-05-04T05:11:21.077Z,62.52
2023-05-04T05:13:49.262Z,62.29
2023-05-04T05:16:17.352Z,61.82
2023-05-04T05:18:45.589Z,61.19
2023-05-04T05:21:14.784Z,62.10
2023-05-04T05:23:42.862Z,62.34
2023-05-04T05:26:10.989Z,62.09
2023-05-04T05:28:39.435Z,62.36
2023-05-04T05:31:07.578Z,62.46
2023-05-04T05:33:35.966Z,62.21
2023-05-04T05:36:06.156Z,62.31
2023-05-04T05:38:34.259Z,62.48
2023-05-04T05:41:02.336Z,62.16
2023-05-04T05:43:30.610Z,62.18
2023-05-04T05:45:58.705Z,62.00
2023-05-04T05:48:26.963Z,61.65
2023-05-04T05:50:55.231Z,61.68
2023-05-04T05:53:23.307Z,61.58
2023-05-04T05:55:51.252Z,62.01
2023-05-04T05:58:19.369Z,62.24
2023-05-04T06:00:48.265Z,61.99
2023-05-04T06:03:16.289Z,62.13
2023-05-04T06:05:44.493Z,62.66
2023-05-04T06:08:12.565Z,62.85
2023-05-04T06:10:40.736Z,62.43
2023-05-04T06:13:08.951Z,62.12
2023-05-04T06:15:37.485Z,61.77
2023-05-04T06:18:05.609Z,61.60
2023-05-04T06:20:33.833Z,61.69
2023-05-04T06:23:02.028Z,61.51
2023-05-04T06:25:30.190Z,61.88
2023-05-04T06:27:58.363Z,62.48
2023-05-04T06:30:26.731Z,61.96
2023-05-04T06:32:54.904Z,62.33
2023-05-04T06:35:23.030Z,62.25
2023-05-04T06:40:25.408Z,61.23
2023-05-04T06:42:53.581Z,61.42
2023-05-04T06:45:21.941Z,61.15
2023-05-04T06:47:49.938Z,61.02
2023-05-04T06:50:18.186Z,61.05
2023-05-04T06:52:46.772Z,61.08
2023-05-04T06:55:15.132Z,61.58
2023-05-04T06:57:43.095Z,61.01
2023-05-04T07:00:12.092Z,60.75
2023-05-04T07:02:40.266Z,60.94
2023-05-04T07:05:08.855Z,60.44
2023-05-04T07:07:37.647Z,60.89
2023-05-04T07:10:06.576Z,61.09
2023-05-04T07:12:34.924Z,60.86
2023-05-04T07:15:03.502Z,60.93
2023-05-04T07:17:32.618Z,60.97
2023-05-04T07:20:05.964Z,61.22
2023-05-04T07:22:34.408Z,61.38
2023-05-04T07:25:03.286Z,62.46
2023-05-04T07:27:31.516Z,62.25
2023-05-04T07:29:59.604Z,62.31
2023-05-04T07:32:27.839Z,62.65
2023-05-04T07:34:56.673Z,62.81
2023-05-04T07:37:24.858Z,62.66
2023-05-04T07:39:52.821Z,61.22
2023-05-04T07:42:20.891Z,60.62
2023-05-04T07:44:49.058Z,60.14
2023-05-04T07:47:17.024Z,59.90
2023-05-04T07:49:45.305Z,60.40
2023-05-04T07:52:13.379Z,60.90
2023-05-04T07:54:41.656Z,60.70
2023-05-04T07:57:09.836Z,60.80
2023-05-04T07:59:38.008Z,60.62
2023-05-04T08:02:06.120Z,60.67
2023-05-04T08:04:34.246Z,60.53
2023-05-04T08:07:02.337Z,59.51
2023-05-04T08:09:30.602Z,58.75
2023-05-04T08:11:58.673Z,57.80
2023-05-04T08:14:26.755Z,57.09
2023-05-04T08:16:55.159Z,56.71
2023-05-04T08:19:23.295Z,55.21
2023-05-04T08:21:51.380Z,54.79
2023-05-04T08:24:19.552Z,54.29
2023-05-04T08:26:59.704Z,54.19
2023-05-04T08:29:37.312Z,53.73
2023-05-04T08:32:06.272Z,53.87
2023-05-04T08:34:36.001Z,53.76
2023-05-04T08:37:04.564Z,53.64
2023-05-04T08:39:32.653Z,53.26
2023-05-04T08:42:00.746Z,53.06
2023-05-04T08:44:29.629Z,52.22
2023-05-04T08:46:58.022Z,51.87
2023-05-04T08:49:27.913Z,52.05
2023-05-04T08:51:57.619Z,52.03
2023-05-04T08:54:27.440Z,51.14
2023-05-04T08:56:57.192Z,51.09
2023-05-04T08:59:27.794Z,51.47
2023-05-04T09:01:59.380Z,51.33
2023-05-04T09:04:29.336Z,51.50
2023-05-04T09:06:58.761Z,51.68
2023-05-04T09:09:29.020Z,51.73
2023-05-04T09:11:59.103Z,51.90
2023-05-04T09:14:33.666Z,52.39
2023-05-04T09:17:03.195Z,52.65
2023-05-04T09:19:34.904Z,52.93
2023-05-04T09:22:14.631Z,53.16
2023-05-04T09:24:43.715Z,54.05
2023-05-04T09:27:13.224Z,54.84
2023-05-04T09:29:42.115Z,54.75
2023-05-04T09:32:17.038Z,54.65
2023-05-04T09:34:52.556Z,55.01
2023-05-04T09:37:22.201Z,55.37
2023-05-04T09:39:53.885Z,55.13
2023-05-04T09:42:24.032Z,54.99
2023-05-04T09:45:08.931Z,55.70
2023-05-04T09:47:41.668Z,55.29
2023-05-04T09:50:19.772Z,55.18
2023-05-04T09:52:50.621Z,55.56
2023-05-04T09:55:20.214Z,55.85
2023-05-04T09:57:50.684Z,55.32
2023-05-04T10:00:19.736Z,55.19
2023-05-04T10:02:48.551Z,55.35
2023-05-04T10:05:18.864Z,54.74
2023-05-04T10:07:47.309Z,54.21
2023-05-04T10:10:15.879Z,54.18
2023-05-04T10:12:45.684Z,54.13
2023-05-04T10:15:16.153Z,53.80
2023-05-04T10:17:50.226Z,53.64
2023-05-04T10:20:44.318Z,53.21
2023-05-04T10:23:37.888Z,52.93
2023-05-04T10:27:03.445Z,52.92
2023-05-04T10:29:36.074Z,53.50
2023-05-04T10:32:04.684Z,54.37
2023-05-04T10:34:34.786Z,54.75
2023-05-04T10:37:04.250Z,53.92
2023-05-04T10:39:34.309Z,54.00
2023-05-04T10:42:04.588Z,54.24
2023-05-04T10:44:37.415Z,54.28
2023-05-04T10:47:07.672Z,53.83
2023-05-04T10:49:36.580Z,53.83
2023-05-04T10:52:18.520Z,53.82
2023-05-04T10:54:47.104Z,53.85
2023-05-04T10:57:17.687Z,53.68
2023-05-04T10:59:57.302Z,53.91
2023-05-04T11:02:27.139Z,54.15
2023-05-04T11:05:04.845Z,53.88
2023-05-04T11:07:38.390Z,54.71
2023-05-04T11:10:09.480Z,54.64
2023-05-04T11:12:38.162Z,54.79
2023-05-04T11:15:12.333Z,55.04
2023-05-04T11:17:46.688Z,55.33
2023-05-04T11:20:26.249Z,56.38
2023-05-04T11:22:55.057Z,56.84
2023-05-04T11:25:30.617Z,56.94
2023-05-04T11:27:58.979Z,57.39
2023-05-04T11:30:35.201Z,57.88
2023-05-04T11:33:11.864Z,58.31
2023-05-04T11:35:42.360Z,58.18
2023-05-04T11:38:11.271Z,57.41
2023-05-04T11:40:41.487Z,57.56
2023-05-04T11:43:11.406Z,57.89
2023-05-04T11:45:41.533Z,58.42
2023-05-04T11:48:10.276Z,59.49
2023-05-04T11:50:38.645Z,59.46
2023-05-04T11:53:12.394Z,58.86
2023-05-04T11:55:42.063Z,58.45
2023-05-04T11:58:12.198Z,58.51
2023-05-04T12:00:47.284Z,59.16
2023-05-04T12:03:18.212Z,60.32
2023-05-04T12:05:52.252Z,60.98
2023-05-04T12:08:31.559Z,60.87
2023-05-04T12:11:16.281Z,60.05
2023-05-04T12:13:45.766Z,61.28
2023-05-04T12:16:19.186Z,61.62
2023-05-04T12:18:48.377Z,60.72
2023-05-04T12:21:21.687Z,61.25
2023-05-04T12:23:50.005Z,62.44
2023-05-04T12:26:19.748Z,63.83
2023-05-04T12:28:48.005Z,64.71
2023-05-04T12:31:16.322Z,64.97
2023-05-04T12:33:45.685Z,64.04
2023-05-04T12:36:14.028Z,64.98
2023-05-04T12:38:41.996Z,66.65
2023-05-04T12:41:11.580Z,66.48
2023-05-04T12:43:39.793Z,66.32
2023-05-04T12:46:07.970Z,66.06
2023-05-04T12:48:36.340Z,67.90
2023-05-04T12:51:05.237Z,67.83
2023-05-04T12:53:33.509Z,69.06
2023-05-04T12:56:02.702Z,69.18
2023-05-04T12:58:31.237Z,68.53
2023-05-04T13:00:59.944Z,67.45
2023-05-04T13:03:28.426Z,66.94
2023-05-04T13:05:57.881Z,66.99
2023-05-04T13:08:26.150Z,67.89
2023-05-04T13:10:54.517Z,68.41
2023-05-04T13:13:26.360Z,68.97
2023-05-04T13:15:54.734Z,68.56
2023-05-04T13:18:27.644Z,67.73
2023-05-04T13:20:56.843Z,66.86
2023-05-04T13:23:24.938Z,66.38
2023-05-04T13:25:53.181Z,67.15
2023-05-04T13:28:21.471Z,65.82
2023-05-04T13:30:49.538Z,65.56
2023-05-04T13:33:28.831Z,66.31
2023-05-04T13:35:59.413Z,66.68
2023-05-04T13:38:28.547Z,66.46
2023-05-04T13:40:56.770Z,66.79
2023-05-04T13:43:25.165Z,66.56
2023-05-04T13:45:53.420Z,66.76
2023-05-04T13:48:21.611Z,66.42
2023-05-04T13:50:49.659Z,66.46
2023-05-04T13:53:18.037Z,66.75
2023-05-04T13:55:46.431Z,66.91
2023-05-04T13:58:14.511Z,66.78
2023-05-04T14:00:43.449Z,67.39
2023-05-04T14:03:11.666Z,67.23
2023-05-04T14:05:40.162Z,67.38
2023-05-04T14:08:08.171Z,67.53
2023-05-04T14:10:37.706Z,67.15
2023-05-04T14:13:05.915Z,66.21
2023-05-04T14:15:34.026Z,65.60
2023-05-04T14:18:02.699Z,65.09
2023-05-04T14:20:32.366Z,64.69
2023-05-04T14:23:00.480Z,65.91
2023-05-04T14:25:28.818Z,66.40
2023-05-04T14:27:56.897Z,66.44
2023-05-04T14:30:26.813Z,66.72
2023-05-04T14:32:55.688Z,66.24
2023-05-04T14:35:24.382Z,65.40
2023-05-04T14:37:52.555Z,65.20
2023-05-04T14:40:20.840Z,64.48
2023-05-04T14:42:48.909Z,63.99
2023-05-04T14:45:17.449Z,63.53
2023-05-04T14:47:45.693Z,64.06
2023-05-04T14:50:14.121Z,63.27
2023-05-04T14:52:42.629Z,62.93
2023-05-04T14:55:10.942Z,62.27
2023-05-04T14:57:39.128Z,62.14
2023-05-04T15:00:09.515Z,62.10
2023-05-04T15:02:38.968Z,61.16
2023-05-04T15:05:09.820Z,61.51
2023-05-04T15:07:38.454Z,61.86
2023-05-04T15:10:08.497Z,62.28
2023-05-04T15:12:38.010Z,62.09
2023-05-04T15:15:06.964Z,61.32
2023-05-04T15:17:35.163Z,61.24
2023-05-04T15:20:03.998Z,61.82
2023-05-04T15:22:32.507Z,61.96
2023-05-04T15:25:02.002Z,61.28
2023-05-04T15:27:30.281Z,61.34
2023-05-04T15:29:58.238Z,61.43
2023-05-04T15:32:26.395Z,61.94
2023-05-04T15:35:04.581Z,62.59
2023-05-04T15:37:34.344Z,62.51
2023-05-04T15:40:03.037Z,62.46
2023-05-04T15:42:31.307Z,62.72
2023-05-04T15:44:59.464Z,63.38
2023-05-04T15:47:27.567Z,63.84
2023-05-04T15:49:55.936Z,64.64
2023-05-04T15:52:24.407Z,64.92
2023-05-04T15:54:52.393Z,65.20
2023-05-04T15:57:20.759Z,65.71
2023-05-04T15:59:49.938Z,66.43
2023-05-04T16:02:18.388Z,66.89
2023-05-04T16:04:46.655Z,66.94
2023-05-04T16:07:14.987Z,67.60
2023-05-04T16:09:43.059Z,67.62
2023-05-04T16:12:11.347Z,67.35
2023-05-04T16:14:40.330Z,67.41
2023-05-04T16:17:08.571Z,67.21
2023-05-04T16:19:36.680Z,67.07
2023-05-04T16:22:04.887Z,66.87
2023-05-04T16:24:34.565Z,66.58
2023-05-04T16:27:03.574Z,66.32
2023-05-04T16:29:31.621Z,66.48
2023-05-04T16:32:00.002Z,66.92
2023-05-04T16:34:28.154Z,67.32
2023-05-04T16:36:56.219Z,67.52
2023-05-04T16:39:30.183Z,67.18
2023-05-04T16:41:59.022Z,67.40
2023-05-04T16:44:27.331Z,67.86
2023-05-04T16:46:55.610Z,68.05
2023-05-04T16:49:24.117Z,68.15
2023-05-04T16:51:56.571Z,68.62
2023-05-04T16:54:24.736Z,68.82
2023-05-04T16:56:53.116Z,68.53
2023-05-04T16:59:21.289Z,68.57
2023-05-04T17:01:49.292Z,68.83
2023-05-04T17:04:17.769Z,68.70
2023-05-04T17:06:46.021Z,68.06
2023-05-04T17:09:14.097Z,67.25
2023-05-04T17:11:42.222Z,68.10
2023-05-04T17:14:11.186Z,68.64
2023-05-04T17:16:39.872Z,68.58
2023-05-04T17:19:10.798Z,68.00
2023-05-04T17:21:39.679Z,67.86
2023-05-04T17:24:07.852Z,67.82
2023-05-04T17:26:36.224Z,67.80
2023-05-04T17:29:04.708Z,68.44
2023-05-04T17:31:32.808Z,69.49
2023-05-04T17:34:00.956Z,70.47
2023-05-04T17:36:29.017Z,71.38
2023-05-04T17:38:57.088Z,72.53
2023-05-04T17:41:25.418Z,73.03
2023-05-04T17:43:54.294Z,73.51
2023-05-04T17:46:22.549Z,73.40
2023-05-04T17:48:52.249Z,73.00
2023-05-04T17:51:22.913Z,72.65
2023-05-04T17:53:51.093Z,73.69
2023-05-04T17:56:21.484Z,73.76
2023-05-04T17:58:49.440Z,73.98
2023-05-04T18:01:17.890Z,73.79
2023-05-04T18:03:46.606Z,74.42
2023-05-04T18:06:15.481Z,74.70
2023-05-04T18:08:43.577Z,74.72
2023-05-04T18:11:12.268Z,74.70
2023-05-04T18:13:40.438Z,74.40
2023-05-04T18:16:08.979Z,74.51
2023-05-04T18:18:37.304Z,74.62
2023-05-04T18:21:05.784Z,74.91
2023-05-04T18:23:33.884Z,75.29
2023-05-04T18:26:02.468Z,75.39
2023-05-04T18:28:30.718Z,75.08
2023-05-04T18:30:58.989Z,75.14
2023-05-04T18:33:27.079Z,74.86
2023-05-04T18:35:55.340Z,74.89
2023-05-04T18:38:23.416Z,74.81
2023-05-04T18:40:53.745Z,74.78
2023-05-04T18:43:21.828Z,74.95
2023-05-04T18:45:50.023Z,74.69
2023-05-04T18:48:18.299Z,74.33
2023-05-04T18:50:57.558Z,74.16
2023-05-04T18:53:26.747Z,74.00
2023-05-04T18:56:01.709Z,73.93
2023-05-04T18:58:30.103Z,74.16
2023-05-04T19:00:58.717Z,74.16
2023-05-04T19:03:27.011Z,74.10
2023-05-04T19:05:55.766Z,74.24
2023-05-04T19:08:24.035Z,74.40
2023-05-04T19:10:52.519Z,74.40
2023-05-04T19:13:21.102Z,74.55
2023-05-04T19:15:49.282Z,74.59
2023-05-04T19:18:17.747Z,74.48
2023-05-04T19:20:46.445Z,74.65
2023-05-04T19:23:14.621Z,74.88
2023-05-04T19:25:43.404Z,75.11
2023-05-04T19:28:12.005Z,75.28
2023-05-04T19:30:40.479Z,75.63
2023-05-04T19:33:08.792Z,75.86
2023-05-04T19:35:37.433Z,76.29
2023-05-04T19:38:08.391Z,76.40
2023-05-04T19:40:36.752Z,76.58
2023-05-04T19:43:05.839Z,76.41
2023-05-04T19:45:34.225Z,76.37
2023-05-04T19:48:05.044Z,76.18
2023-05-04T19:50:33.440Z,76.62
2023-05-04T19:53:01.524Z,76.97
2023-05-04T19:55:29.794Z,77.60
2023-05-04T19:57:58.182Z,78.10
2023-05-04T20:00:27.063Z,78.27
2023-05-04T20:02:55.534Z,78.22
2023-05-04T20:05:23.815Z,78.12
2023-05-04T20:07:51.883Z,78.06
2023-05-04T20:10:20.056Z,78.28
2023-05-04T20:12:48.188Z,78.39
2023-05-04T20:15:16.620Z,78.43
2023-05-04T20:17:44.685Z,78.60
2023-05-04T20:20:19.159Z,78.48
2023-05-04T20:22:49.231Z,78.60
2023-05-04T20:25:17.477Z,78.53
2023-05-04T20:27:49.160Z,78.38
2023-05-04T20:30:18.164Z,78.36
2023-05-04T20:32:48.539Z,78.47
2023-05-04T20:35:17.766Z,78.94
2023-05-04T20:37:45.950Z,78.58
2023-05-04T20:40:16.787Z,78.37
2023-05-04T20:42:44.963Z,78.44
2023-05-04T20:45:13.541Z,78.36
2023-05-04T20:47:43.142Z,78.53
2023-05-04T20:50:12.190Z,78.25
2023-05-04T20:52:40.426Z,78.40
2023-05-04T20:55:09.730Z,78.35
2023-05-04T20:57:37.849Z,78.28
2023-05-04T21:00:07.520Z,77.93
2023-05-04T21:02:36.067Z,77.68
2023-05-04T21:05:07.316Z,77.89
2023-05-04T21:07:35.823Z,78.04
2023-05-04T21:10:04.310Z,78.11
2023-05-04T21:12:32.383Z,78.26
2023-05-04T21:15:00.603Z,78.45
2023-05-04T21:17:28.689Z,78.62
2023-05-04T21:19:56.790Z,78.87
2023-05-04T21:22:25.063Z,79.10
2023-05-04T21:24:53.136Z,79.28
2023-05-04T21:27:21.414Z,79.53
2023-05-04T21:29:49.489Z,79.54
2023-05-04T21:32:17.653Z,79.66
2023-05-04T21:34:52.585Z,79.68
2023-05-04T21:37:20.770Z,79.70
2023-05-04T21:39:54.643Z,79.29
2023-05-04T21:42:23.784Z,79.15
2023-05-04T21:44:58.267Z,79.05
2023-05-04T21:47:28.201Z,79.68
2023-05-04T21:49:56.441Z,79.94
2023-05-04T21:52:24.547Z,80.04
2023-05-04T21:54:52.726Z,80.08
2023-05-04T21:57:21.012Z,80.28
2023-05-04T21:59:49.829Z,80.37
2023-05-04T22:02:18.226Z,80.67
2023-05-04T22:04:46.461Z,80.20
2023-05-04T22:07:15.748Z,80.02
2023-05-04T22:09:43.838Z,80.01
2023-05-04T22:12:11.911Z,79.89
2023-05-04T22:14:42.181Z,79.65
2023-05-04T22:17:10.596Z,79.61
2023-05-04T22:19:38.873Z,79.71
2023-05-04T22:22:07.161Z,79.54
2023-05-04T22:24:35.221Z,79.49
2023-05-04T22:27:03.614Z,79.27
2023-05-04T22:29:34.866Z,79.01
2023-05-04T22:32:03.032Z,78.69
2023-05-04T22:34:31.098Z,78.65
2023-05-04T22:36:59.080Z,78.33
2023-05-04T22:39:27.156Z,78.28
2023-05-04T22:41:55.616Z,77.97
2023-05-04T22:44:23.788Z,78.01
2023-05-04T22:46:51.973Z,77.62
2023-05-04T22:49:20.137Z,77.73
2023-05-04T22:51:48.309Z,78.04
2023-05-04T22:54:16.281Z,78.01
2023-05-04T22:56:44.362Z,78.10
2023-05-04T22:59:12.305Z,78.25
2023-05-04T23:01:43.305Z,78.39
2023-05-04T23:04:12.059Z,78.48
2023-05-04T23:06:40.020Z,78.41
2023-05-04T23:09:07.990Z,78.33
2023-05-04T23:11:35.958Z,78.17
2023-05-04T23:14:04.043Z,78.26
2023-05-04T23:16:32.283Z,78.59
2023-05-04T23:19:00.311Z,78.56
2023-05-04T23:21:28.455Z,78.22
2023-05-04T23:23:56.538Z,78.22
2023-05-04T23:26:24.583Z,78.23
2023-05-04T23:28:52.769Z,78.80
2023-05-04T23:31:21.098Z,79.31
2023-05-04T23:33:49.222Z,79.76
2023-05-04T23:36:17.302Z,79.61
2023-05-04T23:38:45.471Z,79.19
2023-05-04T23:41:13.535Z,79.20
2023-05-04T23:43:41.720Z,80.53
2023-05-04T23:46:09.842Z,80.45
2023-05-04T23:48:37.967Z,80.64
2023-05-04T23:51:06.457Z,82.04
2023-05-04T23:53:35.483Z,83.62
2023-05-04T23:56:06.316Z,84.92
2023-05-04T23:58:35.189Z,84.97
